createdAt,value
2023-05-19T00:02:27.045Z,8.5
2023-05-19T00:04:55.297Z,8.5
2023-05-19T00:07:23.553Z,8.4
2023-05-19T00:12:20.073Z,8
2023-05-19T00:13:34.797Z,7.9
2023-05-19T00:14:48.349Z,7.9
2023-05-19T00:17:16.600Z,7.9
2023-05-19T00:19:44.854Z,7.8
2023-05-19T00:22:13.112Z,7.8
2023-05-19T00:24:41.371Z,8
2023-05-19T00:27:09.624Z,7.9
2023-05-19T00:29:37.881Z,7.9
2023-05-19T00:32:06.137Z,7.7
2023-05-19T00:34:34.399Z,7.5
2023-05-19T00:37:02.655Z,7.7
2023-05-19T00:38:17.380Z,7.8
2023-05-19T00:41:59.415Z,7.8
2023-05-19T00:44:27.676Z,7.7
2023-05-19T00:46:55.937Z,7.7
2023-05-19T00:49:24.189Z,7.8
2023-05-19T00:51:52.447Z,7.9
2023-05-19T00:54:20.698Z,8
2023-05-19T00:56:48.955Z,8.1
2023-05-19T00:59:17.213Z,8.1
2023-05-19T01:01:45.468Z,8.2
2023-05-19T01:03:00.203Z,8.2
2023-05-19T01:04:13.749Z,8.2
2023-05-19T01:06:42.004Z,8.1
2023-05-19T01:09:10.260Z,8.1
2023-05-19T01:14:06.772Z,8
2023-05-19T01:16:35.031Z,8
2023-05-19T01:19:03.291Z,8
2023-05-19T01:21:31.539Z,8
2023-05-19T01:23:59.801Z,7.9
2023-05-19T01:26:28.059Z,7.9
2023-05-19T01:27:42.786Z,7.9
2023-05-19T01:28:56.333Z,7.9
2023-05-19T01:31:24.588Z,7.9
2023-05-19T01:33:52.843Z,7.9
2023-05-19T01:36:21.106Z,7.9
2023-05-19T01:38:49.361Z,7.9
2023-05-19T01:41:17.615Z,7.9
2023-05-19T01:46:14.129Z,7.8
2023-05-19T01:48:42.393Z,7.7
2023-05-19T01:51:10.646Z,7.6
2023-05-19T01:52:25.376Z,7.5
2023-05-19T01:53:38.921Z,7.4
2023-05-19T01:56:07.175Z,7.4
2023-05-19T01:58:35.435Z,7.4
2023-05-19T02:01:03.688Z,7.3
2023-05-19T02:03:31.952Z,7.1
2023-05-19T02:06:00.207Z,7.3
2023-05-19T02:08:28.466Z,7.4
2023-05-19T02:10:56.726Z,7.5
2023-05-19T02:13:24.974Z,7.4
2023-05-19T02:17:07.964Z,7.3
2023-05-19T02:18:21.514Z,7.4
2023-05-19T02:20:49.769Z,7.3
2023-05-19T02:23:18.024Z,7.4
2023-05-19T02:25:46.281Z,7.3
2023-05-19T02:28:14.539Z,7.2
2023-05-19T02:30:42.797Z,7
2023-05-19T02:33:11.055Z,6.9
2023-05-19T02:35:39.306Z,6.8
2023-05-19T02:38:07.569Z,6.8
2023-05-19T02:40:35.828Z,6.8
2023-05-19T02:41:50.555Z,6.7
2023-05-19T02:43:04.103Z,6.6
2023-05-19T02:48:00.609Z,6.7
2023-05-19T02:50:28.875Z,6.6
2023-05-19T02:52:57.128Z,6.7
2023-05-19T02:55:25.380Z,6.7
2023-05-19T02:57:53.640Z,6.9
2023-05-19T03:00:21.902Z,6.7
2023-05-19T03:02:50.159Z,6.7
2023-05-19T03:05:18.416Z,6.9
2023-05-19T03:06:33.138Z,6.7
2023-05-19T03:07:46.689Z,6.8
2023-05-19T03:10:14.944Z,6.9
2023-05-19T03:12:43.206Z,7
2023-05-19T03:15:11.461Z,6.8
2023-05-19T03:20:07.974Z,7
2023-05-19T03:22:36.228Z,7.1
2023-05-19T03:25:04.492Z,7.1
2023-05-19T03:27:32.744Z,7.2
2023-05-19T03:30:01.000Z,7.3
2023-05-19T03:31:15.730Z,7.3
2023-05-19T03:32:29.280Z,7.3
2023-05-19T03:34:57.530Z,7.3
2023-05-19T03:37:25.790Z,7.1
2023-05-19T03:39:54.052Z,7.2
2023-05-19T03:42:22.303Z,7.2
2023-05-19T03:44:50.563Z,7.2
2023-05-19T03:47:18.820Z,7.4
2023-05-19T03:52:15.332Z,7.5
2023-05-19T03:54:43.585Z,7.8
2023-05-19T03:55:58.321Z,7.9
2023-05-19T03:57:11.867Z,8
2023-05-19T03:59:40.119Z,8
2023-05-19T04:02:08.374Z,8
2023-05-19T04:04:36.638Z,8.1
2023-05-19T04:07:04.896Z,8.2
2023-05-19T04:09:33.153Z,8.2
2023-05-19T04:12:01.401Z,8.3
2023-05-19T04:14:29.661Z,8.2
2023-05-19T04:16:57.915Z,8.3
2023-05-19T04:19:26.175Z,8.2
2023-05-19T04:21:54.437Z,8.3
2023-05-19T04:24:22.691Z,8.3
2023-05-19T04:26:50.943Z,8.3
2023-05-19T04:29:19.203Z,8.4
2023-05-19T04:31:47.456Z,8.5
2023-05-19T04:34:15.714Z,8.6
2023-05-19T04:36:43.973Z,8.7
2023-05-19T04:39:12.235Z,8.6
2023-05-19T04:41:40.493Z,8.7
2023-05-19T04:44:08.743Z,8.9
2023-05-19T04:45:23.489Z,8.9
2023-05-19T04:46:37.043Z,8.9
2023-05-19T04:49:05.295Z,9
2023-05-19T04:54:01.811Z,9.1
2023-05-19T04:56:30.066Z,9.3
2023-05-19T04:58:58.319Z,9.3
2023-05-19T05:01:26.581Z,8.9
2023-05-19T05:03:54.837Z,8.9
2023-05-19T05:06:23.093Z,9.2
2023-05-19T05:08:51.353Z,9.2
2023-05-19T05:10:06.083Z,9.3
2023-05-19T05:11:19.625Z,9.4
2023-05-19T05:13:47.886Z,9.4
2023-05-19T05:16:16.138Z,9.4
2023-05-19T05:18:44.400Z,9.3
2023-05-19T05:21:12.652Z,9.2
2023-05-19T05:26:09.166Z,9.4
2023-05-19T05:28:37.426Z,9.2
2023-05-19T05:31:05.684Z,9.1
2023-05-19T05:33:33.944Z,9
2023-05-19T05:36:02.220Z,9
2023-05-19T05:38:30.478Z,9.1
2023-05-19T05:40:58.732Z,9
2023-05-19T05:43:26.995Z,9
2023-05-19T05:45:55.246Z,9
2023-05-19T05:48:23.508Z,9.1
2023-05-19T05:50:51.762Z,9.2
2023-05-19T05:53:20.015Z,9.4
2023-05-19T05:58:16.529Z,9.5
2023-05-19T05:59:31.259Z,9.6
2023-05-19T06:00:44.811Z,9.6
2023-05-19T06:03:13.063Z,9.6
2023-05-19T06:05:41.327Z,9.8
2023-05-19T06:08:09.577Z,9.9
2023-05-19T06:10:37.837Z,10
2023-05-19T06:13:06.095Z,9.9
2023-05-19T06:15:34.348Z,10
2023-05-19T06:18:02.605Z,9.9
2023-05-19T06:20:30.868Z,10.1
2023-05-19T06:22:59.116Z,10.2
2023-05-19T06:24:13.850Z,10.4
2023-05-19T06:27:55.884Z,10.4
2023-05-19T06:30:24.141Z,10.7
2023-05-19T06:32:52.403Z,10.4
2023-05-19T06:35:20.657Z,10.7
2023-05-19T06:37:48.910Z,10.9
2023-05-19T06:40:17.174Z,11
2023-05-19T06:42:45.428Z,11
2023-05-19T06:45:13.684Z,11.1
2023-05-19T06:47:41.943Z,11.1
2023-05-19T06:48:56.665Z,11.1
2023-05-19T06:50:10.220Z,11.1
2023-05-19T06:52:38.477Z,11.3
2023-05-19T06:55:06.730Z,11.4
2023-05-19T07:00:03.241Z,11.5
2023-05-19T07:02:31.495Z,11.7
2023-05-19T07:04:59.761Z,11.8
2023-05-19T07:07:28.018Z,11.6
2023-05-19T07:09:56.266Z,11.8
2023-05-19T07:12:24.526Z,11.9
2023-05-19T07:13:39.261Z,12.2
2023-05-19T07:14:52.803Z,12.4
2023-05-19T07:17:21.061Z,11.8
2023-05-19T07:19:49.319Z,11.8
2023-05-19T07:22:17.575Z,11.8
2023-05-19T07:24:45.834Z,12.3
2023-05-19T07:27:14.089Z,12.6
2023-05-19T07:32:10.607Z,12.5
2023-05-19T07:34:38.864Z,12.5
2023-05-19T07:37:07.113Z,12.8
2023-05-19T07:38:21.849Z,13
2023-05-19T07:39:35.389Z,13
2023-05-19T07:42:03.652Z,13.2
2023-05-19T07:44:31.903Z,13.7
2023-05-19T07:47:00.166Z,14
2023-05-19T07:49:28.418Z,13.7
2023-05-19T07:51:56.678Z,13.7
2023-05-19T07:54:24.927Z,14.1
2023-05-19T07:56:53.186Z,14.3
2023-05-19T07:59:21.440Z,14.2
2023-05-19T08:03:04.427Z,14.5
2023-05-19T08:04:17.981Z,14.7
2023-05-19T08:06:46.231Z,14.4
2023-05-19T08:09:14.489Z,14.4
2023-05-19T08:11:42.745Z,14.4
2023-05-19T08:14:11.004Z,14.9
2023-05-19T08:16:39.266Z,15.1
2023-05-19T08:19:07.522Z,15.4
2023-05-19T08:21:35.780Z,15.5
2023-05-19T08:24:04.038Z,15.5
2023-05-19T08:26:32.291Z,15.6
2023-05-19T08:27:47.020Z,15.7
2023-05-19T08:29:00.568Z,15.9
2023-05-19T08:33:57.084Z,16.1
2023-05-19T08:36:25.336Z,16
2023-05-19T08:38:53.590Z,16
2023-05-19T08:41:21.846Z,16.3
2023-05-19T08:43:50.102Z,16
2023-05-19T08:46:18.363Z,15.6
2023-05-19T08:48:46.616Z,16.1
2023-05-19T08:51:14.872Z,15.8
2023-05-19T08:52:29.607Z,16
2023-05-19T08:53:43.150Z,16
2023-05-19T08:56:11.406Z,15.8
2023-05-19T08:58:39.668Z,15.8
2023-05-19T09:01:07.916Z,16.2
2023-05-19T09:06:04.439Z,16.1
2023-05-19T09:08:32.687Z,16.5
2023-05-19T09:11:00.945Z,15.9
2023-05-19T09:13:29.206Z,16.4
2023-05-19T09:15:57.456Z,16.9
2023-05-19T09:17:12.193Z,16.5
2023-05-19T09:18:25.741Z,16.1
2023-05-19T09:20:53.995Z,16.1
2023-05-19T09:23:22.254Z,16.5
2023-05-19T09:25:50.510Z,16.2
2023-05-19T09:28:18.757Z,16.7
2023-05-19T09:30:47.017Z,16.6
2023-05-19T09:33:15.274Z,16.3
2023-05-19T09:38:11.789Z,16.3
2023-05-19T09:40:40.048Z,16.5
2023-05-19T09:41:54.775Z,16.6
2023-05-19T09:43:08.318Z,16.7
2023-05-19T09:45:36.574Z,16.9
2023-05-19T09:48:04.837Z,17.1
2023-05-19T09:50:33.089Z,17
2023-05-19T09:53:01.349Z,16.9
2023-05-19T09:55:29.606Z,16.9
2023-05-19T09:57:57.861Z,16.5
2023-05-19T10:00:26.112Z,16
2023-05-19T10:02:54.372Z,16.1
2023-05-19T10:05:22.625Z,16.5
2023-05-19T10:07:50.892Z,16.6
2023-05-19T10:10:19.141Z,17
2023-05-19T10:12:47.405Z,16.9
2023-05-19T10:15:15.654Z,17.3
2023-05-19T10:17:43.913Z,16.7
2023-05-19T10:20:12.176Z,16.8
2023-05-19T10:22:40.431Z,16.6
2023-05-19T10:25:08.687Z,16.8
2023-05-19T10:27:36.938Z,16.9
2023-05-19T10:30:05.195Z,16.8
2023-05-19T10:31:19.945Z,16.8
2023-05-19T10:32:33.489Z,16.9
2023-05-19T10:35:01.756Z,17.1
2023-05-19T10:39:58.264Z,17.1
2023-05-19T10:42:26.523Z,17.5
2023-05-19T10:44:54.781Z,17.6
2023-05-19T10:47:23.038Z,17.6
2023-05-19T10:49:51.289Z,17.8
2023-05-19T10:52:19.545Z,17.7
2023-05-19T10:54:47.803Z,17.6
2023-05-19T10:56:02.536Z,17.5
2023-05-19T10:57:16.081Z,17.6
2023-05-19T10:59:44.337Z,17.8
2023-05-19T11:02:12.599Z,17.9
2023-05-19T11:04:40.849Z,17.8
2023-05-19T11:07:09.113Z,18
2023-05-19T11:12:05.626Z,17.6
2023-05-19T11:14:33.879Z,17.6
2023-05-19T11:17:02.140Z,17.9
2023-05-19T11:19:30.390Z,17.8
2023-05-19T11:20:45.127Z,17.5
2023-05-19T11:21:58.670Z,17
2023-05-19T11:24:26.925Z,17
2023-05-19T11:26:55.181Z,17.3
2023-05-19T11:29:23.440Z,17.5
2023-05-19T11:31:51.696Z,17.6
2023-05-19T11:34:19.951Z,17.6
2023-05-19T11:36:48.211Z,17.9
2023-05-19T11:39:16.471Z,17.8
2023-05-19T11:44:12.985Z,17.3
2023-05-19T11:45:27.715Z,17.3
2023-05-19T11:46:41.259Z,17.4
2023-05-19T11:49:09.521Z,17.6
2023-05-19T11:51:37.776Z,18.1
2023-05-19T11:54:06.032Z,18
2023-05-19T11:56:34.284Z,18
2023-05-19T11:59:02.543Z,18.6
2023-05-19T12:01:30.799Z,18.7
2023-05-19T12:03:59.053Z,18.6
2023-05-19T12:06:27.315Z,18
2023-05-19T12:08:55.568Z,18
2023-05-19T12:10:10.303Z,18.5
2023-05-19T12:13:52.338Z,18.2
2023-05-19T12:16:20.588Z,18.1
2023-05-19T12:18:48.853Z,18.4
2023-05-19T12:21:17.106Z,18.9
2023-05-19T12:23:45.363Z,19
2023-05-19T12:26:13.624Z,18.8
2023-05-19T12:28:41.878Z,18.8
2023-05-19T12:31:10.138Z,18.8
2023-05-19T12:33:38.390Z,18.3
2023-05-19T12:34:53.124Z,18.5
2023-05-19T12:36:06.665Z,18.4
2023-05-19T12:38:34.927Z,18.3
2023-05-19T12:41:03.177Z,18.8
2023-05-19T12:45:59.695Z,18.9
2023-05-19T12:48:27.946Z,18.5
2023-05-19T12:50:56.210Z,18.8
2023-05-19T12:53:24.462Z,18.9
2023-05-19T12:55:52.720Z,18.6
2023-05-19T12:58:20.980Z,18.5
2023-05-19T12:59:35.706Z,18.3
2023-05-19T13:00:49.248Z,18.1
2023-05-19T13:03:17.507Z,18.1
2023-05-19T13:05:45.763Z,18.5
2023-05-19T13:08:14.027Z,18.9
2023-05-19T13:10:42.277Z,18.8
2023-05-19T13:13:10.538Z,18.7
2023-05-19T13:18:07.050Z,18.9
2023-05-19T13:20:35.309Z,18.5
2023-05-19T13:23:03.567Z,18.3
2023-05-19T13:24:18.293Z,18.5
2023-05-19T13:25:31.834Z,18.7
2023-05-19T13:28:00.099Z,18.8
2023-05-19T13:30:28.351Z,18.9
2023-05-19T13:32:56.609Z,19
2023-05-19T13:35:24.861Z,18.6
2023-05-19T13:37:53.126Z,18.9
2023-05-19T13:40:21.379Z,19.3
2023-05-19T13:42:49.638Z,19.4
2023-05-19T13:45:17.889Z,19.5
2023-05-19T13:49:00.879Z,19.5
2023-05-19T13:50:14.423Z,19.2
2023-05-19T13:52:42.677Z,19
2023-05-19T13:55:10.943Z,19.1
2023-05-19T13:57:39.191Z,19.4
2023-05-19T14:00:07.448Z,19.2
2023-05-19T14:02:35.706Z,18.9
2023-05-19T14:05:03.966Z,18.6
2023-05-19T14:07:32.222Z,18.9
2023-05-19T14:10:00.476Z,18.9
2023-05-19T14:12:28.731Z,17.9
2023-05-19T14:13:43.467Z,18.4
2023-05-19T14:14:57.011Z,18.5
2023-05-19T14:19:53.524Z,18.5
2023-05-19T14:22:21.780Z,18.9
2023-05-19T14:24:50.036Z,19.1
2023-05-19T14:27:18.293Z,18.6
2023-05-19T14:29:46.547Z,18.9
2023-05-19T14:32:14.803Z,19
2023-05-19T14:34:43.061Z,18.9
2023-05-19T14:37:11.315Z,18.7
2023-05-19T14:38:26.052Z,18.7
2023-05-19T14:39:39.597Z,18.7
2023-05-19T14:42:07.850Z,18.5
2023-05-19T14:44:36.113Z,18.6
2023-05-19T14:47:04.365Z,18.6
2023-05-19T14:52:00.879Z,18.6
2023-05-19T14:54:29.141Z,18.6
2023-05-19T14:56:57.391Z,18.6
2023-05-19T14:59:25.653Z,18.4
2023-05-19T15:01:53.911Z,18.3
2023-05-19T15:03:08.641Z,18.3
2023-05-19T15:04:22.182Z,18.3
2023-05-19T15:06:50.440Z,18.3
2023-05-19T15:09:18.696Z,18.4
2023-05-19T15:11:46.954Z,18.5
2023-05-19T15:14:15.210Z,18.5
2023-05-19T15:16:43.464Z,18.6
2023-05-19T15:19:11.722Z,18.6
2023-05-19T15:24:08.241Z,18.3
2023-05-19T15:26:36.494Z,18.2
2023-05-19T15:27:51.226Z,18.6
2023-05-19T15:29:04.768Z,18.5
2023-05-19T15:31:33.030Z,18.4
2023-05-19T15:34:01.286Z,18.1
2023-05-19T15:36:29.536Z,18.2
2023-05-19T15:38:57.801Z,18.4
2023-05-19T15:41:26.054Z,18.2
2023-05-19T15:43:54.311Z,18.5
2023-05-19T15:46:22.569Z,18.5
2023-05-19T15:48:50.821Z,18.6
2023-05-19T15:51:19.084Z,18.4
2023-05-19T15:53:47.336Z,18.6
2023-05-19T15:56:15.598Z,18.6
2023-05-19T15:58:43.849Z,18.5
2023-05-19T16:01:12.107Z,18.5
2023-05-19T16:03:40.367Z,18.5
2023-05-19T16:06:08.623Z,18.5
2023-05-19T16:08:36.879Z,18
2023-05-19T16:11:05.130Z,17.7
2023-05-19T16:13:33.391Z,17.6
2023-05-19T16:16:01.644Z,17.7
2023-05-19T16:17:16.396Z,17.7
2023-05-19T16:18:29.940Z,17.7
2023-05-19T16:20:58.200Z,17.6
2023-05-19T16:25:54.707Z,17.9
2023-05-19T16:28:22.971Z,17.8
2023-05-19T16:30:51.224Z,18.1
2023-05-19T16:33:19.477Z,17.5
2023-05-19T16:35:47.733Z,17.4
2023-05-19T16:38:15.999Z,17.4
2023-05-19T16:40:44.250Z,17.3
2023-05-19T16:41:58.982Z,17.3
2023-05-19T16:43:12.526Z,17.4
2023-05-19T16:45:40.784Z,17.5
2023-05-19T16:48:09.044Z,17.5
2023-05-19T16:50:37.299Z,17.3
2023-05-19T16:53:05.554Z,17.3
2023-05-19T16:58:02.066Z,17.2
2023-05-19T17:00:30.330Z,17.3
2023-05-19T17:02:58.580Z,17.3
2023-05-19T17:05:26.841Z,17.3
2023-05-19T17:06:41.573Z,16.9
2023-05-19T17:07:55.115Z,17
2023-05-19T17:10:23.371Z,17.1
2023-05-19T17:12:51.625Z,17.1
2023-05-19T17:15:19.886Z,17.1
2023-05-19T17:17:48.139Z,17.1
2023-05-19T17:20:16.403Z,16.9
2023-05-19T17:22:44.657Z,17
2023-05-19T17:25:12.919Z,16.7
2023-05-19T17:30:09.432Z,16.8
2023-05-19T17:31:24.157Z,16.9
2023-05-19T17:32:37.708Z,17
2023-05-19T17:35:05.960Z,16.9
2023-05-19T17:37:34.218Z,16.9
2023-05-19T17:40:02.474Z,17
2023-05-19T17:42:30.731Z,17.1
2023-05-19T17:44:58.988Z,16.9
2023-05-19T17:47:27.243Z,16.7
2023-05-19T17:49:55.497Z,16.7
2023-05-19T17:52:23.759Z,16.8
2023-05-19T17:54:52.011Z,16.7
2023-05-19T17:56:06.745Z,16.8
2023-05-19T17:59:48.778Z,16.9
2023-05-19T18:02:17.039Z,16.6
2023-05-19T18:04:45.294Z,16.7
2023-05-19T18:07:13.554Z,16.6
2023-05-19T18:09:41.806Z,16.7
2023-05-19T18:12:10.058Z,16.5
2023-05-19T18:14:38.314Z,16.5
2023-05-19T18:17:06.572Z,16.4
2023-05-19T18:19:34.836Z,16.3
2023-05-19T18:20:49.564Z,16.5
2023-05-19T18:22:03.106Z,16.6
2023-05-19T18:24:31.409Z,16.5
2023-05-19T18:26:59.624Z,16.5
2023-05-19T18:31:56.129Z,16.3
2023-05-19T18:34:24.393Z,16
2023-05-19T18:36:52.647Z,16
2023-05-19T18:39:20.904Z,16
2023-05-19T18:41:49.163Z,16.1
2023-05-19T18:44:17.424Z,16.3
2023-05-19T18:45:32.151Z,15.8
2023-05-19T18:46:45.695Z,15.8
2023-05-19T18:49:13.945Z,15.8
2023-05-19T18:51:42.210Z,15.8
2023-05-19T18:54:10.459Z,15.7
2023-05-19T18:56:38.716Z,15.5
2023-05-19T18:59:06.974Z,15.4
2023-05-19T19:04:03.487Z,15.8
2023-05-19T19:06:31.743Z,15.3
2023-05-19T19:08:59.999Z,15.4
2023-05-19T19:10:14.731Z,15.3
2023-05-19T19:11:28.277Z,15.2
2023-05-19T19:13:56.531Z,15
2023-05-19T19:16:24.788Z,15
2023-05-19T19:18:53.043Z,14.9
2023-05-19T19:21:21.301Z,15
2023-05-19T19:23:49.559Z,15
2023-05-19T19:26:17.819Z,14.9
2023-05-19T19:28:46.078Z,14.9
2023-05-19T19:31:14.335Z,15.2
2023-05-19T19:34:57.317Z,14.9
2023-05-19T19:36:10.860Z,14.9
2023-05-19T19:38:39.119Z,14.7
2023-05-19T19:41:07.376Z,14.7
2023-05-19T19:43:35.633Z,14.7
2023-05-19T19:46:03.887Z,14.6
2023-05-19T19:48:32.147Z,14.5
2023-05-19T19:51:00.402Z,14.4
2023-05-19T19:53:28.663Z,14.4
2023-05-19T19:55:56.917Z,14.4
2023-05-19T19:58:25.179Z,14.1
2023-05-19T19:59:39.906Z,14.3
2023-05-19T20:00:53.456Z,14.3
2023-05-19T20:05:49.964Z,14.2
2023-05-19T20:08:18.224Z,14.1
2023-05-19T20:10:46.484Z,14.1
2023-05-19T20:13:14.735Z,14.1
2023-05-19T20:15:42.997Z,13.7
2023-05-19T20:18:11.249Z,13.7
2023-05-19T20:20:39.512Z,13.6
2023-05-19T20:23:07.763Z,13.7
2023-05-19T20:24:22.493Z,13.7
2023-05-19T20:25:36.045Z,13.6
2023-05-19T20:28:04.296Z,13.6
2023-05-19T20:30:32.549Z,13.4
2023-05-19T20:33:00.809Z,13.3
2023-05-19T20:37:57.323Z,13.5
2023-05-19T20:40:25.577Z,13.3
2023-05-19T20:42:53.833Z,13.5
2023-05-19T20:45:22.089Z,13.2
2023-05-19T20:47:50.346Z,13.2
2023-05-19T20:49:05.081Z,13.1
2023-05-19T20:50:18.626Z,13.2
2023-05-19T20:52:46.883Z,13.1
2023-05-19T20:55:15.137Z,13
2023-05-19T20:57:43.395Z,12.9
2023-05-19T21:00:11.653Z,12.9
2023-05-19T21:02:39.908Z,12.9
2023-05-19T21:05:08.167Z,12.7
2023-05-19T21:10:04.683Z,13
2023-05-19T21:12:32.937Z,13
2023-05-19T21:13:47.661Z,12.9
2023-05-19T21:15:01.209Z,12.8
2023-05-19T21:17:29.463Z,12.7
2023-05-19T21:19:57.728Z,12.6
2023-05-19T21:22:25.978Z,12.6
2023-05-19T21:24:54.233Z,12.5
2023-05-19T21:27:22.495Z,12.4
2023-05-19T21:29:50.753Z,12.6
2023-05-19T21:32:19.009Z,12.7
2023-05-19T21:34:47.259Z,12.6
2023-05-19T21:37:15.523Z,12.4
2023-05-19T21:39:43.781Z,12.3
2023-05-19T21:42:12.037Z,12.3
2023-05-19T21:44:40.290Z,12.3
2023-05-19T21:47:08.551Z,12.2
2023-05-19T21:49:36.801Z,12.2
2023-05-19T21:52:05.063Z,12.3
2023-05-19T21:54:33.321Z,12.4
2023-05-19T21:57:01.575Z,12.3
2023-05-19T21:59:29.829Z,12.2
2023-05-19T22:01:58.084Z,12.3
2023-05-19T22:03:12.835Z,12.5
2023-05-19T22:04:26.376Z,12.2
2023-05-19T22:06:54.635Z,12.2
2023-05-19T22:11:51.155Z,12.3
2023-05-19T22:14:19.408Z,12.5
2023-05-19T22:16:47.660Z,12.7
2023-05-19T22:19:15.918Z,12.6
2023-05-19T22:21:44.178Z,12.7
2023-05-19T22:24:12.430Z,12.5
2023-05-19T22:26:40.692Z,12.4
2023-05-19T22:27:55.424Z,12.2
2023-05-19T22:29:08.965Z,12.1
2023-05-19T22:31:37.221Z,12.1
2023-05-19T22:34:05.479Z,12
2023-05-19T22:36:33.741Z,12.1
2023-05-19T22:39:01.995Z,11.8
2023-05-19T22:43:58.505Z,11.9
2023-05-19T22:46:26.764Z,12.4
2023-05-19T22:48:55.022Z,12.1
2023-05-19T22:51:23.276Z,11.7
2023-05-19T22:52:38.008Z,11.6
2023-05-19T22:53:51.558Z,11.8
2023-05-19T22:56:19.812Z,11.9
2023-05-19T22:58:48.074Z,11.9
2023-05-19T23:01:16.330Z,11.9
2023-05-19T23:03:44.590Z,11.9
2023-05-19T23:06:12.841Z,11.7
2023-05-19T23:08:41.098Z,11.6
2023-05-19T23:11:09.356Z,11.6
2023-05-19T23:16:05.875Z,11.6
2023-05-19T23:17:20.597Z,11.4
2023-05-19T23:18:34.147Z,11.4
2023-05-19T23:21:02.408Z,11.1
2023-05-19T23:23:30.657Z,11.3
2023-05-19T23:25:58.917Z,11.2
2023-05-19T23:28:27.177Z,11
2023-05-19T23:30:55.435Z,11
2023-05-19T23:33:23.684Z,10.8
2023-05-19T23:35:51.940Z,10.8
2023-05-19T23:38:20.204Z,11
2023-05-19T23:40:48.462Z,11
2023-05-19T23:42:03.187Z,11
2023-05-19T23:45:45.222Z,10.8
2023-05-19T23:48:13.479Z,10.8
2023-05-19T23:50:41.740Z,10.7
2023-05-19T23:53:09.989Z,10.7
2023-05-19T23:55:38.251Z,11
2023-05-19T23:58:06.506Z,10.8
